Terminal Aerodrome Forecast
Issued by NWS

Home | Current Version | Previous Version | Text Only | Print | Product List | Glossary On
Versions: 1 2 3 4 5 6 7 8 9 10 11 12 13 14 15 16 17 18 19 20 21 22 23 24 25 26 27
000
FTUS43 KLSX 200300 CCA
TAFCPS
TAF COR
KCPS 200315Z 2003/2024 VRB03KT P6SM SKC
     FM200600 00000KT 3SM BR SKC
      TEMPO 2007/2011 1SM BR
     FM201100 00000KT P6SM VCTS BKN060CB
     FM201400 VRB03KT P6SM BKN060
     FM201600 21007KT P6SM SCT045=

USA.gov is the U.S. government's official web portal to all federal, state and local government web resources and services.